METAR|ÜBERSETZT|TAF
EDHK 311550Z 08009KT CAVOK 20/17 Q1013
Login|Impressum|Kontakt



Presse

Pressemitteilungen
Artikel aus der Presse
Bildmaterial